sensor_id;sensor_type;location;lat;lon;timestamp;pressure;altitude;pressure_sealevel;temperature;humidity
54038;BME280;39954;48.844;9.726;2024-02-23T00:00:33;94159.53;;;2.93;100.00
54038;BME280;39954;48.844;9.726;2024-02-23T00:01:36;94157.22;;;2.88;100.00
54038;BME280;39954;48.844;9.726;2024-02-23T00:02:41;94163.19;;;2.89;100.00
54038;BME280;39954;48.844;9.726;2024-02-23T00:03:43;94175.09;;;2.90;100.00
54038;BME280;39954;48.844;9.726;2024-02-23T00:04:47;94170.03;;;2.88;100.00
54038;BME280;39954;48.844;9.726;2024-02-23T00:05:50;94161.63;;;2.86;100.00
54038;BME280;39954;48.844;9.726;2024-02-23T00:06:54;94157.22;;;2.88;100.00
54038;BME280;39954;48.844;9.726;2024-02-23T00:07:57;94157.41;;;2.85;100.00
54038;BME280;39954;48.844;9.726;2024-02-23T00:09:04;94154.56;;;2.90;100.00
54038;BME280;39954;48.844;9.726;2024-02-23T00:10:07;94146.25;;;2.86;100.00
54038;BME280;39954;48.844;9.726;2024-02-23T00:11:12;94147.06;;;2.87;100.00
54038;BME280;39954;48.844;9.726;2024-02-23T00:12:14;94145.66;;;2.81;100.00
54038;BME280;39954;48.844;9.726;2024-02-23T00:13:19;94157.69;;;2.81;100.00
54038;BME280;39954;48.844;9.726;2024-02-23T00:14:21;94159.44;;;2.80;100.00
54038;BME280;39954;48.844;9.726;2024-02-23T00:15:26;94168.00;;;2.79;100.00
54038;BME280;39954;48.844;9.726;2024-02-23T00:16:28;94169.84;;;2.77;100.00
54038;BME280;39954;48.844;9.726;2024-02-23T00:17:33;94168.94;;;2.78;100.00
54038;BME280;39954;48.844;9.726;2024-02-23T00:18:35;94177.38;;;2.80;100.00
54038;BME280;39954;48.844;9.726;2024-02-23T00:19:38;94163.06;;;2.76;100.00
54038;BME280;39954;48.844;9.726;2024-02-23T00:20:42;94177.63;;;2.76;100.00
54038;BME280;39954;48.844;9.726;2024-02-23T00:21:45;94181.84;;;2.77;100.00
54038;BME280;39954;48.844;9.726;2024-02-23T00:22:52;94171.84;;;2.72;100.00
54038;BME280;39954;48.844;9.726;2024-02-23T00:23:55;94167.56;;;2.73;100.00
54038;BME280;39954;48.844;9.726;2024-02-23T00:25:02;94160.94;;;2.68;100.00
54038;BME280;39954;48.844;9.726;2024-02-23T00:26:05;94164.22;;;2.71;100.00
54038;BME280;39954;48.844;9.726;2024-02-23T00:27:10;94173.75;;;2.68;100.00
54038;BME280;39954;48.844;9.726;2024-02-23T00:28:12;94173.84;;;2.67;100.00
54038;BME280;39954;48.844;9.726;2024-02-23T00:29:14;94177.31;;;2.66;100.00
54038;BME280;39954;48.844;9.726;2024-02-23T00:30:19;94173.84;;;2.67;100.00
54038;BME280;39954;48.844;9.726;2024-02-23T00:31:22;94172.19;;;2.66;100.00
54038;BME280;39954;48.844;9.726;2024-02-23T00:32:27;94178.22;;;2.65;100.00
54038;BME280;39954;48.844;9.726;2024-02-23T00:33:29;94194.63;;;2.62;100.00
54038;BME280;39954;48.844;9.726;2024-02-23T00:34:35;94199.84;;;2.61;100.00
54038;BME280;39954;48.844;9.726;2024-02-23T00:35:37;94203.31;;;2.60;100.00
54038;BME280;39954;48.844;9.726;2024-02-23T00:36:40;94210.19;;;2.59;100.00
54038;BME280;39954;48.844;9.726;2024-02-23T00:37:46;94211.00;;;2.60;100.00
54038;BME280;39954;48.844;9.726;2024-02-23T00:38:49;94208.59;;;2.57;100.00
54038;BME280;39954;48.844;9.726;2024-02-23T00:39:53;94219.78;;;2.56;100.00
54038;BME280;39954;48.844;9.726;2024-02-23T00:40:58;94219.78;;;2.56;100.00
54038;BME280;39954;48.844;9.726;2024-02-23T00:42:03;94227.56;;;2.54;100.00
54038;BME280;39954;48.844;9.726;2024-02-23T00:43:06;94232.78;;;2.53;100.00
54038;BME280;39954;48.844;9.726;2024-02-23T00:44:11;94241.19;;;2.55;100.00
54038;BME280;39954;48.844;9.726;2024-02-23T00:45:14;94238.81;;;2.52;100.00
54038;BME280;39954;48.844;9.726;2024-02-23T00:46:19;94229.47;;;2.51;100.00
54038;BME280;39954;48.844;9.726;2024-02-23T00:47:21;94224.34;;;2.51;100.00
54038;BME280;39954;48.844;9.726;2024-02-23T00:48:26;94225.97;;;2.52;100.00
54038;BME280;39954;48.844;9.726;2024-02-23T00:49:28;94231.97;;;2.52;100.00
54038;BME280;39954;48.844;9.726;2024-02-23T00:50:33;94227.81;;;2.50;100.00
54038;BME280;39954;48.844;9.726;2024-02-23T00:51:35;94233.94;;;2.47;100.00
54038;BME280;39954;48.844;9.726;2024-02-23T00:52:37;94231.28;;;2.49;100.00
54038;BME280;39954;48.844;9.726;2024-02-23T00:53:43;94217.56;;;2.50;100.00
54038;BME280;39954;48.844;9.726;2024-02-23T00:54:46;94225.44;;;2.46;100.00
54038;BME280;39954;48.844;9.726;2024-02-23T00:55:50;94215.91;;;2.49;100.00
54038;BME280;39954;48.844;9.726;2024-02-23T00:56:55;94222.69;;;2.50;100.00
54038;BME280;39954;48.844;9.726;2024-02-23T00:57:58;94232.94;;;2.50;100.00
54038;BME280;39954;48.844;9.726;2024-02-23T00:59:04;94240.66;;;2.50;100.00
54038;BME280;39954;48.844;9.726;2024-02-23T01:00:07;94232.28;;;2.46;100.00
54038;BME280;39954;48.844;9.726;2024-02-23T01:01:12;94240.88;;;2.45;100.00
54038;BME280;39954;48.844;9.726;2024-02-23T01:02:14;94244.19;;;2.47;100.00
54038;BME280;39954;48.844;9.726;2024-02-23T01:03:19;94237.22;;;2.49;100.00
54038;BME280;39954;48.844;9.726;2024-02-23T01:04:21;94239.88;;;2.47;100.00
54038;BME280;39954;48.844;9.726;2024-02-23T01:05:26;94228.97;;;2.44;100.00
54038;BME280;39954;48.844;9.726;2024-02-23T01:06:28;94247.81;;;2.43;100.00
54038;BME280;39954;48.844;9.726;2024-02-23T01:07:33;94237.41;;;2.46;100.00
54038;BME280;39954;48.844;9.726;2024-02-23T01:08:35;94233.25;;;2.43;100.00
54038;BME280;39954;48.844;9.726;2024-02-23T01:09:42;94230.69;;;2.43;100.00
54038;BME280;39954;48.844;9.726;2024-02-23T01:10:44;94228.97;;;2.44;100.00
54038;BME280;39954;48.844;9.726;2024-02-23T01:11:51;94233.25;;;2.43;100.00
54038;BME280;39954;48.844;9.726;2024-02-23T01:12:57;94231.63;;;2.42;100.00
54038;BME280;39954;48.844;9.726;2024-02-23T01:14:02;94234.19;;;2.42;100.00
54038;BME280;39954;48.844;9.726;2024-02-23T01:15:05;94226.66;;;2.39;100.00
54038;BME280;39954;48.844;9.726;2024-02-23T01:16:10;94247.75;;;2.44;100.00
54038;BME280;39954;48.844;9.726;2024-02-23T01:17:12;94243.69;;;2.40;100.00
54038;BME280;39954;48.844;9.726;2024-02-23T01:18:17;94238.56;;;2.40;100.00
54038;BME280;39954;48.844;9.726;2024-02-23T01:19:19;94239.41;;;2.41;100.00
54038;BME280;39954;48.844;9.726;2024-02-23T01:20:24;94237.91;;;2.37;100.00
54038;BME280;39954;48.844;9.726;2024-02-23T01:21:26;94237.66;;;2.41;100.00
54038;BME280;39954;48.844;9.726;2024-02-23T01:22:31;94234.34;;;2.39;100.00
54038;BME280;39954;48.844;9.726;2024-02-23T01:23:33;94238.72;;;2.37;100.00
54038;BME280;39954;48.844;9.726;2024-02-23T01:24:35;94242.03;;;2.39;100.00
54038;BME280;39954;48.844;9.726;2024-02-23T01:25:40;94234.53;;;2.36;100.00
54038;BME280;39954;48.844;9.726;2024-02-23T01:26:42;94236.34;;;2.34;100.00
54038;BME280;39954;48.844;9.726;2024-02-23T01:27:47;94244.84;;;2.35;100.00
54038;BME280;39954;48.844;9.726;2024-02-23T01:28:52;94245.53;;;2.38;100.00
54038;BME280;39954;48.844;9.726;2024-02-23T01:29:57;94240.41;;;2.38;100.00
54038;BME280;39954;48.844;9.726;2024-02-23T01:30:59;94226.66;;;2.39;100.00
54038;BME280;39954;48.844;9.726;2024-02-23T01:32:05;94230.31;;;2.35;100.00
54038;BME280;39954;48.844;9.726;2024-02-23T01:33:07;94228.75;;;2.33;100.00
54038;BME280;39954;48.844;9.726;2024-02-23T01:34:10;94231.38;;;2.31;100.00
54038;BME280;39954;48.844;9.726;2024-02-23T01:35:15;94226.25;;;2.31;100.00
54038;BME280;39954;48.844;9.726;2024-02-23T01:36:17;94231.38;;;2.31;100.00
54038;BME280;39954;48.844;9.726;2024-02-23T01:37:22;94234.09;;;2.28;100.00
54038;BME280;39954;48.844;9.726;2024-02-23T01:38:26;94237.25;;;2.33;100.00
54038;BME280;39954;48.844;9.726;2024-02-23T01:39:34;94239.22;;;2.28;100.00
54038;BME280;39954;48.844;9.726;2024-02-23T01:40:36;94234.19;;;2.27;100.00
54038;BME280;39954;48.844;9.726;2024-02-23T01:41:41;94242.53;;;2.30;100.00
54038;BME280;39954;48.844;9.726;2024-02-23T01:42:45;94236.34;;;2.34;100.00
54038;BME280;39954;48.844;9.726;2024-02-23T01:43:53;94238.25;;;2.31;100.00
54038;BME280;39954;48.844;9.726;2024-02-23T01:44:55;94234.53;;;2.36;100.00
54038;BME280;39954;48.844;9.726;2024-02-23T01:46:03;94244.59;;;2.39;100.00
54038;BME280;39954;48.844;9.726;2024-02-23T01:47:05;94236.16;;;2.37;100.00
54038;BME280;39954;48.844;9.726;2024-02-23T01:48:10;94242.22;;;2.36;100.00
54038;BME280;39954;48.844;9.726;2024-02-23T01:49:13;94244.94;;;2.33;100.00
54038;BME280;39954;48.844;9.726;2024-02-23T01:50:18;94243.19;;;2.34;100.00
54038;BME280;39954;48.844;9.726;2024-02-23T01:51:20;94239.81;;;2.33;100.00
54038;BME280;39954;48.844;9.726;2024-02-23T01:52:26;94243.84;;;2.37;100.00
54038;BME280;39954;48.844;9.726;2024-02-23T01:53:28;94249.16;;;2.34;100.00
54038;BME280;39954;48.844;9.726;2024-02-23T01:54:33;94247.50;;;2.33;100.00
54038;BME280;39954;48.844;9.726;2024-02-23T01:55:36;94246.75;;;2.31;100.00
54038;BME280;39954;48.844;9.726;2024-02-23T01:56:41;94245.84;;;2.32;100.00
54038;BME280;39954;48.844;9.726;2024-02-23T01:57:44;94240.88;;;2.29;100.00
54038;BME280;39954;48.844;9.726;2024-02-23T01:58:55;94241.78;;;2.28;100.00
54038;BME280;39954;48.844;9.726;2024-02-23T02:00:00;94247.69;;;2.30;100.00
54038;BME280;39954;48.844;9.726;2024-02-23T02:01:02;94247.84;;;2.27;100.00
54038;BME280;39954;48.844;9.726;2024-02-23T02:02:04;94243.59;;;2.26;100.00
54038;BME280;39954;48.844;9.726;2024-02-23T02:03:09;94254.78;;;2.25;100.00
54038;BME280;39954;48.844;9.726;2024-02-23T02:04:13;94257.50;;;2.22;100.00
54038;BME280;39954;48.844;9.726;2024-02-23T02:05:18;94255.78;;;2.22;100.00
54038;BME280;39954;48.844;9.726;2024-02-23T02:06:21;94252.44;;;2.20;100.00
54038;BME280;39954;48.844;9.726;2024-02-23T02:07:25;94259.31;;;2.20;100.00
54038;BME280;39954;48.844;9.726;2024-02-23T02:08:28;94256.69;;;2.21;100.00
54038;BME280;39954;48.844;9.726;2024-02-23T02:09:33;94255.78;;;2.22;100.00
54038;BME280;39954;48.844;9.726;2024-02-23T02:10:35;94251.47;;;2.23;100.00
54038;BME280;39954;48.844;9.726;2024-02-23T02:11:45;94259.91;;;2.25;100.00
54038;BME280;39954;48.844;9.726;2024-02-23T02:12:47;94267.59;;;2.25;100.00
54038;BME280;39954;48.844;9.726;2024-02-23T02:13:54;94265.84;;;2.26;100.00
54038;BME280;39954;48.844;9.726;2024-02-23T02:14:57;94267.50;;;2.27;100.00
54038;BME280;39954;48.844;9.726;2024-02-23T02:16:03;94270.00;;;2.28;100.00
54038;BME280;39954;48.844;9.726;2024-02-23T02:17:05;94276.94;;;2.26;100.00
54038;BME280;39954;48.844;9.726;2024-02-23T02:18:10;94271.81;;;2.26;100.00
54038;BME280;39954;48.844;9.726;2024-02-23T02:19:14;94269.34;;;2.24;100.00
54038;BME280;39954;48.844;9.726;2024-02-23T02:20:24;94270.16;;;2.25;100.00
54038;BME280;39954;48.844;9.726;2024-02-23T02:21:26;94267.66;;;2.23;100.00
54038;BME280;39954;48.844;9.726;2024-02-23T02:22:32;94274.69;;;2.20;100.00
54038;BME280;39954;48.844;9.726;2024-02-23T02:23:34;94276.50;;;2.18;100.00
54038;BME280;39954;48.844;9.726;2024-02-23T02:24:39;94273.94;;;2.18;100.00
54038;BME280;39954;48.844;9.726;2024-02-23T02:25:44;94274.88;;;2.17;100.00
54038;BME280;39954;48.844;9.726;2024-02-23T02:26:46;94280.91;;;2.16;100.00
54038;BME280;39954;48.844;9.726;2024-02-23T02:27:52;94282.56;;;2.17;100.00
54038;BME280;39954;48.844;9.726;2024-02-23T02:28:57;94280.00;;;2.17;100.00
54038;BME280;39954;48.844;9.726;2024-02-23T02:30:02;94280.16;;;2.14;100.00
54038;BME280;39954;48.844;9.726;2024-02-23T02:31:05;94278.47;;;2.13;100.00
54038;BME280;39954;48.844;9.726;2024-02-23T02:32:10;94281.19;;;2.10;100.00
54038;BME280;39954;48.844;9.726;2024-02-23T02:33:12;94282.06;;;2.10;100.00
54038;BME280;39954;48.844;9.726;2024-02-23T02:34:17;94280.47;;;2.08;100.00
54038;BME280;39954;48.844;9.726;2024-02-23T02:35:19;94283.88;;;2.08;100.00
54038;BME280;39954;48.844;9.726;2024-02-23T02:36:21;94267.66;;;2.08;100.00
54038;BME280;39954;48.844;9.726;2024-02-23T02:37:26;94271.94;;;2.07;100.00
54038;BME280;39954;48.844;9.726;2024-02-23T02:38:28;94284.69;;;2.09;100.00
54038;BME280;39954;48.844;9.726;2024-02-23T02:39:35;94277.91;;;2.08;100.00
54038;BME280;39954;48.844;9.726;2024-02-23T02:40:38;94285.78;;;2.05;100.00
54038;BME280;39954;48.844;9.726;2024-02-23T02:41:43;94278.97;;;2.04;100.00
54038;BME280;39954;48.844;9.726;2024-02-23T02:42:45;94270.47;;;2.03;100.00
54038;BME280;39954;48.844;9.726;2024-02-23T02:43:50;94268.81;;;2.02;100.00
54038;BME280;39954;48.844;9.726;2024-02-23T02:44:55;94262.84;;;2.01;100.00
54038;BME280;39954;48.844;9.726;2024-02-23T02:46:00;94261.94;;;2.03;100.00
54038;BME280;39954;48.844;9.726;2024-02-23T02:47:02;94252.59;;;2.01;100.00
54038;BME280;39954;48.844;9.726;2024-02-23T02:48:07;94261.19;;;2.00;100.00
54038;BME280;39954;48.844;9.726;2024-02-23T02:49:10;94271.44;;;2.00;100.00
54038;BME280;39954;48.844;9.726;2024-02-23T02:50:15;94274.00;;;2.00;100.00
54038;BME280;39954;48.844;9.726;2024-02-23T02:51:17;94268.88;;;2.00;100.00
54038;BME280;39954;48.844;9.726;2024-02-23T02:52:22;94271.44;;;2.00;100.00
54038;BME280;39954;48.844;9.726;2024-02-23T02:53:25;94268.88;;;2.00;100.00
54038;BME280;39954;48.844;9.726;2024-02-23T02:54:28;94273.25;;;1.98;100.00
54038;BME280;39954;48.844;9.726;2024-02-23T02:55:33;94268.88;;;2.00;100.00
54038;BME280;39954;48.844;9.726;2024-02-23T02:56:35;94269.81;;;1.99;100.00
54038;BME280;39954;48.844;9.726;2024-02-23T02:57:40;94281.84;;;1.97;100.00
54038;BME280;39954;48.844;9.726;2024-02-23T02:58:42;94286.16;;;1.97;100.00
54038;BME280;39954;48.844;9.726;2024-02-23T02:59:47;94286.97;;;1.97;100.00
54038;BME280;39954;48.844;9.726;2024-02-23T03:00:54;94281.84;;;1.97;100.00
54038;BME280;39954;48.844;9.726;2024-02-23T03:01:56;94278.38;;;1.98;100.00
54038;BME280;39954;48.844;9.726;2024-02-23T03:03:01;94284.34;;;1.99;100.00
54038;BME280;39954;48.844;9.726;2024-02-23T03:04:04;94290.13;;;2.03;100.00
54038;BME280;39954;48.844;9.726;2024-02-23T03:05:09;94290.13;;;2.03;100.00
54038;BME280;39954;48.844;9.726;2024-02-23T03:06:11;94291.94;;;2.00;100.00
54038;BME280;39954;48.844;9.726;2024-02-23T03:07:16;94303.09;;;1.99;100.00
54038;BME280;39954;48.844;9.726;2024-02-23T03:08:18;94298.88;;;1.98;100.00
54038;BME280;39954;48.844;9.726;2024-02-23T03:09:23;94298.22;;;1.95;100.00
54038;BME280;39954;48.844;9.726;2024-02-23T03:10:25;94303.34;;;1.95;100.00
54038;BME280;39954;48.844;9.726;2024-02-23T03:11:30;94294.72;;;1.96;100.00
54038;BME280;39954;48.844;9.726;2024-02-23T03:12:32;94304.00;;;1.98;100.00
54038;BME280;39954;48.844;9.726;2024-02-23T03:13:37;94312.53;;;1.99;100.00
54038;BME280;39954;48.844;9.726;2024-02-23T03:14:39;94298.06;;;1.98;100.00
54038;BME280;39954;48.844;9.726;2024-02-23T03:15:44;94290.13;;;2.03;100.00
54038;BME280;39954;48.844;9.726;2024-02-23T03:16:49;94290.91;;;2.05;100.00
54038;BME280;39954;48.844;9.726;2024-02-23T03:17:55;94295.09;;;2.06;100.00
54038;BME280;39954;48.844;9.726;2024-02-23T03:18:57;94287.47;;;2.04;100.00
54038;BME280;39954;48.844;9.726;2024-02-23T03:20:03;94287.41;;;2.06;100.00
54038;BME280;39954;48.844;9.726;2024-02-23T03:21:07;94290.91;;;2.05;100.00
54038;BME280;39954;48.844;9.726;2024-02-23T03:22:11;94287.41;;;2.06;100.00
54038;BME280;39954;48.844;9.726;2024-02-23T03:23:16;94282.13;;;2.09;100.00
54038;BME280;39954;48.844;9.726;2024-02-23T03:24:18;94283.03;;;2.08;100.00
54038;BME280;39954;48.844;9.726;2024-02-23T03:25:22;94274.75;;;2.03;100.00
54038;BME280;39954;48.844;9.726;2024-02-23T03:26:25;94287.97;;;1.95;100.00
54038;BME280;39954;48.844;9.726;2024-02-23T03:27:28;94288.94;;;1.92;100.00
54038;BME280;39954;48.844;9.726;2024-02-23T03:28:33;94283.06;;;1.90;100.00
54038;BME280;39954;48.844;9.726;2024-02-23T03:29:35;94295.16;;;1.88;100.00
54038;BME280;39954;48.844;9.726;2024-02-23T03:30:40;94278.09;;;1.87;100.00
54038;BME280;39954;48.844;9.726;2024-02-23T03:31:42;94277.38;;;1.85;100.00
54038;BME280;39954;48.844;9.726;2024-02-23T03:32:50;94263.66;;;1.86;100.00
54038;BME280;39954;48.844;9.726;2024-02-23T03:33:52;94269.69;;;1.85;100.00
54038;BME280;39954;48.844;9.726;2024-02-23T03:34:57;94263.97;;;1.80;100.00
54038;BME280;39954;48.844;9.726;2024-02-23T03:35:59;94259.75;;;1.79;100.00
54038;BME280;39954;48.844;9.726;2024-02-23T03:37:04;94264.13;;;1.77;100.00
54038;BME280;39954;48.844;9.726;2024-02-23T03:38:06;94260.81;;;1.75;100.00
54038;BME280;39954;48.844;9.726;2024-02-23T03:39:11;94253.91;;;1.77;100.00
54038;BME280;39954;48.844;9.726;2024-02-23T03:40:13;94241.97;;;1.76;100.00
54038;BME280;39954;48.844;9.726;2024-02-23T03:41:19;94238.38;;;1.80;100.00
54038;BME280;39954;48.844;9.726;2024-02-23T03:42:22;94241.59;;;1.84;100.00
54038;BME280;39954;48.844;9.726;2024-02-23T03:43:26;94243.16;;;1.86;100.00
54038;BME280;39954;48.844;9.726;2024-02-23T03:44:31;94244.09;;;1.85;100.00
54038;BME280;39954;48.844;9.726;2024-02-23T03:45:36;94242.34;;;1.86;100.00
54038;BME280;39954;48.844;9.726;2024-02-23T03:46:38;94244.97;;;1.84;100.00
54038;BME280;39954;48.844;9.726;2024-02-23T03:47:43;94247.69;;;1.81;100.00
54038;BME280;39954;48.844;9.726;2024-02-23T03:48:48;94262.16;;;1.82;100.00
54038;BME280;39954;48.844;9.726;2024-02-23T03:49:53;94273.31;;;1.81;100.00
54038;BME280;39954;48.844;9.726;2024-02-23T03:50:56;94284.63;;;1.77;100.00
54038;BME280;39954;48.844;9.726;2024-02-23T03:52:00;94285.50;;;1.76;100.00
54038;BME280;39954;48.844;9.726;2024-02-23T03:53:03;94286.38;;;1.76;100.00
54038;BME280;39954;48.844;9.726;2024-02-23T03:54:08;94288.06;;;1.76;100.00
54038;BME280;39954;48.844;9.726;2024-02-23T03:55:10;94284.69;;;1.75;100.00
54038;BME280;39954;48.844;9.726;2024-02-23T03:56:15;94281.31;;;1.75;100.00
54038;BME280;39954;48.844;9.726;2024-02-23T03:57:17;94281.47;;;1.72;100.00
54038;BME280;39954;48.844;9.726;2024-02-23T03:58:22;94279.94;;;1.68;100.00
54038;BME280;39954;48.844;9.726;2024-02-23T03:59:24;94291.88;;;1.69;100.00
54038;BME280;39954;48.844;9.726;2024-02-23T04:00:29;94303.00;;;1.68;100.00
54038;BME280;39954;48.844;9.726;2024-02-23T04:01:31;94308.22;;;1.66;100.00
54038;BME280;39954;48.844;9.726;2024-02-23T04:02:36;94309.09;;;1.65;100.00
54038;BME280;39954;48.844;9.726;2024-02-23T04:03:40;94307.53;;;1.63;100.00
54038;BME280;39954;48.844;9.726;2024-02-23T04:04:47;94302.50;;;1.61;100.00
54038;BME280;39954;48.844;9.726;2024-02-23T04:05:50;94302.56;;;1.60;100.00
54038;BME280;39954;48.844;9.726;2024-02-23T04:06:54;94287.28;;;1.58;100.00
54038;BME280;39954;48.844;9.726;2024-02-23T04:07:57;94288.19;;;1.57;100.00
54038;BME280;39954;48.844;9.726;2024-02-23T04:09:02;94290.66;;;1.59;100.00
54038;BME280;39954;48.844;9.726;2024-02-23T04:10:08;94289.91;;;1.56;100.00
54038;BME280;39954;48.844;9.726;2024-02-23T04:11:18;94297.84;;;1.52;100.00
54038;BME280;39954;48.844;9.726;2024-02-23T04:12:20;94291.97;;;1.50;100.00
54038;BME280;39954;48.844;9.726;2024-02-23T04:13:25;94293.53;;;1.52;100.00
54038;BME280;39954;48.844;9.726;2024-02-23T04:14:27;94286.69;;;1.53;100.00
54038;BME280;39954;48.844;9.726;2024-02-23T04:15:32;94292.63;;;1.53;100.00
54038;BME280;39954;48.844;9.726;2024-02-23T04:16:34;94301.28;;;1.51;100.00
54038;BME280;39954;48.844;9.726;2024-02-23T04:17:39;94307.31;;;1.50;100.00
54038;BME280;39954;48.844;9.726;2024-02-23T04:18:41;94308.16;;;1.50;100.00
54038;BME280;39954;48.844;9.726;2024-02-23T04:19:51;94313.41;;;1.47;100.00
54038;BME280;39954;48.844;9.726;2024-02-23T04:20:53;94313.41;;;1.47;100.00
54038;BME280;39954;48.844;9.726;2024-02-23T04:21:59;94315.91;;;1.49;100.00
54038;BME280;39954;48.844;9.726;2024-02-23T04:23:01;94320.19;;;1.48;100.00
54038;BME280;39954;48.844;9.726;2024-02-23T04:24:06;94316.94;;;1.45;100.00
54038;BME280;39954;48.844;9.726;2024-02-23T04:25:09;94311.94;;;1.43;100.00
54038;BME280;39954;48.844;9.726;2024-02-23T04:26:13;94305.06;;;1.44;100.00
54038;BME280;39954;48.844;9.726;2024-02-23T04:27:16;94308.59;;;1.41;100.00
54038;BME280;39954;48.844;9.726;2024-02-23T04:28:20;94311.22;;;1.40;100.00
54038;BME280;39954;48.844;9.726;2024-02-23T04:29:23;94318.84;;;1.41;100.00
54038;BME280;39954;48.844;9.726;2024-02-23T04:30:25;94320.66;;;1.39;100.00
54038;BME280;39954;48.844;9.726;2024-02-23T04:31:30;94324.03;;;1.40;100.00
54038;BME280;39954;48.844;9.726;2024-02-23T04:32:32;94322.44;;;1.37;100.00
54038;BME280;39954;48.844;9.726;2024-02-23T04:33:35;94321.72;;;1.35;100.00
54038;BME280;39954;48.844;9.726;2024-02-23T04:34:40;94326.97;;;1.32;100.00
54038;BME280;39954;48.844;9.726;2024-02-23T04:35:45;94320.34;;;1.28;100.00
54038;BME280;39954;48.844;9.726;2024-02-23T04:36:50;94312.00;;;1.24;100.00
54038;BME280;39954;48.844;9.726;2024-02-23T04:37:55;94312.00;;;1.24;100.00
54038;BME280;39954;48.844;9.726;2024-02-23T04:38:57;94312.00;;;1.24;100.00
54038;BME280;39954;48.844;9.726;2024-02-23T04:40:03;94317.13;;;1.24;100.00
54038;BME280;39954;48.844;9.726;2024-02-23T04:41:07;94312.97;;;1.22;100.00
54038;BME280;39954;48.844;9.726;2024-02-23T04:42:12;94313.94;;;1.19;100.00
54038;BME280;39954;48.844;9.726;2024-02-23T04:43:14;94313.13;;;1.19;100.00
54038;BME280;39954;48.844;9.726;2024-02-23T04:44:16;94304.53;;;1.20;100.00
54038;BME280;39954;48.844;9.726;2024-02-23T04:45:21;94306.47;;;1.15;100.00
54038;BME280;39954;48.844;9.726;2024-02-23T04:46:23;94309.03;;;1.15;100.00
54038;BME280;39954;48.844;9.726;2024-02-23T04:47:28;94315.06;;;1.14;100.00
54038;BME280;39954;48.844;9.726;2024-02-23T04:48:30;94315.06;;;1.14;100.00
54038;BME280;39954;48.844;9.726;2024-02-23T04:49:35;94313.41;;;1.13;100.00
54038;BME280;39954;48.844;9.726;2024-02-23T04:50:39;94312.56;;;1.12;100.00
54038;BME280;39954;48.844;9.726;2024-02-23T04:51:47;94320.19;;;1.14;100.00
54038;BME280;39954;48.844;9.726;2024-02-23T04:52:49;94321.97;;;1.11;100.00
54038;BME280;39954;48.844;9.726;2024-02-23T04:53:54;94330.41;;;1.14;100.00
54038;BME280;39954;48.844;9.726;2024-02-23T04:54:56;94319.22;;;1.16;100.00
54038;BME280;39954;48.844;9.726;2024-02-23T04:56:01;94316.72;;;1.15;100.00
54038;BME280;39954;48.844;9.726;2024-02-23T04:57:04;94311.00;;;1.09;100.00
54038;BME280;39954;48.844;9.726;2024-02-23T04:58:08;94304.53;;;1.02;100.00
54038;BME280;39954;48.844;9.726;2024-02-23T04:59:10;94294.34;;;1.01;100.00
54038;BME280;39954;48.844;9.726;2024-02-23T05:00:16;94296.09;;;1.00;100.00
54038;BME280;39954;48.844;9.726;2024-02-23T05:01:19;94290.25;;;0.98;100.00
54038;BME280;39954;48.844;9.726;2024-02-23T05:02:25;94285.03;;;1.00;100.00
54038;BME280;39954;48.844;9.726;2024-02-23T05:03:30;94291.88;;;0.99;100.00
54038;BME280;39954;48.844;9.726;2024-02-23T05:04:35;94296.19;;;0.99;100.00
54038;BME280;39954;48.844;9.726;2024-02-23T05:05:37;94298.63;;;1.00;100.00
54038;BME280;39954;48.844;9.726;2024-02-23T05:06:42;94300.16;;;1.04;100.00
54038;BME280;39954;48.844;9.726;2024-02-23T05:07:50;94306.00;;;1.06;100.00
54038;BME280;39954;48.844;9.726;2024-02-23T05:08:55;94301.91;;;1.04;100.00
54038;BME280;39954;48.844;9.726;2024-02-23T05:09:57;94302.22;;;1.15;100.00
54038;BME280;39954;48.844;9.726;2024-02-23T05:11:02;94302.34;;;1.12;100.00
54038;BME280;39954;48.844;9.726;2024-02-23T05:12:08;94288.88;;;1.08;100.00
54038;BME280;39954;48.844;9.726;2024-02-23T05:13:13;94285.69;;;1.03;100.00
54038;BME280;39954;48.844;9.726;2024-02-23T05:14:15;94283.28;;;1.00;100.00
54038;BME280;39954;48.844;9.726;2024-02-23T05:15:20;94287.38;;;1.04;100.00
54038;BME280;39954;48.844;9.726;2024-02-23T05:16:22;94294.13;;;1.05;100.00
54038;BME280;39954;48.844;9.726;2024-02-23T05:17:27;94293.09;;;1.09;100.00
54038;BME280;39954;48.844;9.726;2024-02-23T05:18:29;94298.34;;;1.06;100.00
54038;BME280;39954;48.844;9.726;2024-02-23T05:19:34;94292.66;;;1.01;100.00
54038;BME280;39954;48.844;9.726;2024-02-23T05:20:39;94278.31;;;0.97;100.00
54038;BME280;39954;48.844;9.726;2024-02-23T05:21:43;94282.31;;;1.03;100.00
54038;BME280;39954;48.844;9.726;2024-02-23T05:22:50;94276.53;;;0.99;100.00
54038;BME280;39954;48.844;9.726;2024-02-23T05:23:53;94273.88;;;1.01;100.00
54038;BME280;39954;48.844;9.726;2024-02-23T05:24:58;94268.25;;;0.94;100.00
54038;BME280;39954;48.844;9.726;2024-02-23T05:26:01;94274.28;;;0.93;100.00
54038;BME280;39954;48.844;9.726;2024-02-23T05:27:08;94280.22;;;0.94;100.00
54038;BME280;39954;48.844;9.726;2024-02-23T05:28:10;94287.22;;;0.90;100.00
54038;BME280;39954;48.844;9.726;2024-02-23T05:29:15;94297.28;;;0.93;100.00
54038;BME280;39954;48.844;9.726;2024-02-23T05:30:22;94305.69;;;0.95;100.00
54038;BME280;39954;48.844;9.726;2024-02-23T05:31:44;94312.50;;;0.96;100.00
54038;BME280;39954;48.844;9.726;2024-02-23T05:32:47;94310.81;;;0.95;100.00
54038;BME280;39954;48.844;9.726;2024-02-23T05:33:52;94307.38;;;0.96;100.00
54038;BME280;39954;48.844;9.726;2024-02-23T05:34:54;94308.25;;;0.95;100.00
54038;BME280;39954;48.844;9.726;2024-02-23T05:35:59;94298.78;;;0.97;100.00
54038;BME280;39954;48.844;9.726;2024-02-23T05:37:01;94294.75;;;0.93;100.00
54038;BME280;39954;48.844;9.726;2024-02-23T05:38:09;94289.84;;;0.88;100.00
54038;BME280;39954;48.844;9.726;2024-02-23T05:39:11;94291.56;;;0.88;100.00